sensor_id;sensor_type;location;lat;lon;timestamp;temperature;humidity
62476;DHT22;50739;45.670;11.936;2022-10-16T00:04:44;18.53;83.32
62476;DHT22;50739;45.670;11.936;2022-10-16T00:09:47;18.58;82.92
62476;DHT22;50739;45.670;11.936;2022-10-16T00:14:49;18.53;83.23
62476;DHT22;50739;45.670;11.936;2022-10-16T00:19:51;18.48;83.48
62476;DHT22;50739;45.670;11.936;2022-10-16T00:24:54;18.45;83.66
62476;DHT22;50739;45.670;11.936;2022-10-16T00:29:56;18.48;84.11
62476;DHT22;50739;45.670;11.936;2022-10-16T00:34:57;18.46;83.89
62476;DHT22;50739;45.670;11.936;2022-10-16T00:40:01;18.48;83.53
62476;DHT22;50739;45.670;11.936;2022-10-16T00:45:03;18.51;83.94
62476;DHT22;50739;45.670;11.936;2022-10-16T00:50:08;18.49;83.57
62476;DHT22;50739;45.670;11.936;2022-10-16T00:55:12;18.39;83.96
62476;DHT22;50739;45.670;11.936;2022-10-16T01:00:16;18.41;84.26
62476;DHT22;50739;45.670;11.936;2022-10-16T01:05:20;18.42;84.22
62476;DHT22;50739;45.670;11.936;2022-10-16T01:10:30;18.38;84.29
62476;DHT22;50739;45.670;11.936;2022-10-16T01:15:35;18.32;84.57
62476;DHT22;50739;45.670;11.936;2022-10-16T01:20:42;18.28;84.83
62476;DHT22;50739;45.670;11.936;2022-10-16T01:26:03;18.25;84.88
62476;DHT22;50739;45.670;11.936;2022-10-16T01:31:15;18.24;84.53
62476;DHT22;50739;45.670;11.936;2022-10-16T01:36:23;18.15;84.93
62476;DHT22;50739;45.670;11.936;2022-10-16T01:41:30;18.18;84.82
62476;DHT22;50739;45.670;11.936;2022-10-16T01:46:38;18.17;84.79
62476;DHT22;50739;45.670;11.936;2022-10-16T01:51:41;18.15;84.69
62476;DHT22;50739;45.670;11.936;2022-10-16T01:56:46;18.12;84.68
62476;DHT22;50739;45.670;11.936;2022-10-16T02:01:54;18.01;85.16
62476;DHT22;50739;45.670;11.936;2022-10-16T02:06:57;18.00;85.46
62476;DHT22;50739;45.670;11.936;2022-10-16T02:12:01;17.94;85.59
62476;DHT22;50739;45.670;11.936;2022-10-16T02:17:12;17.94;85.73
62476;DHT22;50739;45.670;11.936;2022-10-16T02:22:17;17.91;85.64
62476;DHT22;50739;45.670;11.936;2022-10-16T02:27:23;17.94;85.63
62476;DHT22;50739;45.670;11.936;2022-10-16T02:32:30;17.93;85.50
62476;DHT22;50739;45.670;11.936;2022-10-16T02:37:33;17.96;85.49
62476;DHT22;50739;45.670;11.936;2022-10-16T02:42:38;17.94;85.43
62476;DHT22;50739;45.670;11.936;2022-10-16T02:47:42;17.93;85.04
62476;DHT22;50739;45.670;11.936;2022-10-16T02:52:44;17.89;85.17
62476;DHT22;50739;45.670;11.936;2022-10-16T02:57:46;17.87;84.64
62476;DHT22;50739;45.670;11.936;2022-10-16T03:02:49;17.86;84.31
62476;DHT22;50739;45.670;11.936;2022-10-16T03:07:51;17.84;84.08
62476;DHT22;50739;45.670;11.936;2022-10-16T03:12:53;17.79;83.99
62476;DHT22;50739;45.670;11.936;2022-10-16T03:17:57;17.70;83.68
62476;DHT22;50739;45.670;11.936;2022-10-16T03:22:58;17.70;83.64
62476;DHT22;50739;45.670;11.936;2022-10-16T03:28:00;17.61;83.67
62476;DHT22;50739;45.670;11.936;2022-10-16T03:33:04;17.56;83.66
62476;DHT22;50739;45.670;11.936;2022-10-16T03:38:06;17.52;83.73
62476;DHT22;50739;45.670;11.936;2022-10-16T03:43:08;17.53;83.52
62476;DHT22;50739;45.670;11.936;2022-10-16T03:48:11;17.46;83.97
62476;DHT22;50739;45.670;11.936;2022-10-16T03:53:13;17.39;83.97
62476;DHT22;50739;45.670;11.936;2022-10-16T03:58:15;17.36;83.68
62476;DHT22;50739;45.670;11.936;2022-10-16T04:03:18;17.32;83.67
62476;DHT22;50739;45.670;11.936;2022-10-16T04:08:21;17.26;83.86
62476;DHT22;50739;45.670;11.936;2022-10-16T04:13:23;17.19;83.91
62476;DHT22;50739;45.670;11.936;2022-10-16T04:18:26;17.08;83.99
62476;DHT22;50739;45.670;11.936;2022-10-16T04:23:29;17.04;84.34
62476;DHT22;50739;45.670;11.936;2022-10-16T04:28:48;16.98;84.22
62476;DHT22;50739;45.670;11.936;2022-10-16T04:33:50;16.87;84.55
62476;DHT22;50739;45.670;11.936;2022-10-16T04:38:52;16.87;84.82
62476;DHT22;50739;45.670;11.936;2022-10-16T04:43:55;16.79;84.87
62476;DHT22;50739;45.670;11.936;2022-10-16T04:48:57;16.74;85.20
62476;DHT22;50739;45.670;11.936;2022-10-16T04:53:59;16.80;84.86
62476;DHT22;50739;45.670;11.936;2022-10-16T04:59:03;16.76;85.22
62476;DHT22;50739;45.670;11.936;2022-10-16T05:04:05;16.69;85.40
62476;DHT22;50739;45.670;11.936;2022-10-16T05:09:07;16.57;85.41
62476;DHT22;50739;45.670;11.936;2022-10-16T05:14:11;16.55;85.65
62476;DHT22;50739;45.670;11.936;2022-10-16T05:19:13;16.50;85.69
62476;DHT22;50739;45.670;11.936;2022-10-16T05:24:14;16.45;85.95
62476;DHT22;50739;45.670;11.936;2022-10-16T05:29:18;16.38;86.11
62476;DHT22;50739;45.670;11.936;2022-10-16T05:34:20;16.33;86.25
62476;DHT22;50739;45.670;11.936;2022-10-16T05:39:22;16.28;86.55
62476;DHT22;50739;45.670;11.936;2022-10-16T05:44:25;16.18;86.87
62476;DHT22;50739;45.670;11.936;2022-10-16T05:49:27;16.12;87.01
62476;DHT22;50739;45.670;11.936;2022-10-16T05:54:29;16.08;87.45
62476;DHT22;50739;45.670;11.936;2022-10-16T05:59:33;16.04;87.55
62476;DHT22;50739;45.670;11.936;2022-10-16T06:04:34;16.04;87.74
62476;DHT22;50739;45.670;11.936;2022-10-16T06:09:36;16.04;87.92
62476;DHT22;50739;45.670;11.936;2022-10-16T06:14:39;16.08;87.62
62476;DHT22;50739;45.670;11.936;2022-10-16T06:19:41;16.09;87.52
62476;DHT22;50739;45.670;11.936;2022-10-16T06:24:43;16.14;87.51
62476;DHT22;50739;45.670;11.936;2022-10-16T06:29:46;16.15;87.40
62476;DHT22;50739;45.670;11.936;2022-10-16T06:34:49;16.19;87.30
62476;DHT22;50739;45.670;11.936;2022-10-16T06:39:51;16.23;86.94
62476;DHT22;50739;45.670;11.936;2022-10-16T06:44:55;16.30;86.59
62476;DHT22;50739;45.670;11.936;2022-10-16T06:49:57;16.38;86.56
62476;DHT22;50739;45.670;11.936;2022-10-16T06:54:59;16.46;86.15
62476;DHT22;50739;45.670;11.936;2022-10-16T07:00:03;16.46;85.98
62476;DHT22;50739;45.670;11.936;2022-10-16T07:05:06;16.49;86.05
62476;DHT22;50739;45.670;11.936;2022-10-16T07:10:08;16.59;85.48
62476;DHT22;50739;45.670;11.936;2022-10-16T07:15:11;16.63;85.16
62476;DHT22;50739;45.670;11.936;2022-10-16T07:20:13;16.73;84.73
62476;DHT22;50739;45.670;11.936;2022-10-16T07:25:15;16.81;84.69
62476;DHT22;50739;45.670;11.936;2022-10-16T07:30:18;16.84;84.18
62476;DHT22;50739;45.670;11.936;2022-10-16T07:35:21;16.97;84.24
62476;DHT22;50739;45.670;11.936;2022-10-16T07:40:23;17.04;83.78
62476;DHT22;50739;45.670;11.936;2022-10-16T07:45:28;17.12;83.18
62476;DHT22;50739;45.670;11.936;2022-10-16T07:50:30;17.24;83.20
62476;DHT22;50739;45.670;11.936;2022-10-16T07:55:32;17.36;83.00
62476;DHT22;50739;45.670;11.936;2022-10-16T08:00:36;17.47;82.82
62476;DHT22;50739;45.670;11.936;2022-10-16T08:05:38;17.59;82.70
62476;DHT22;50739;45.670;11.936;2022-10-16T08:10:39;17.83;81.80
62476;DHT22;50739;45.670;11.936;2022-10-16T08:15:43;18.07;81.67
62476;DHT22;50739;45.670;11.936;2022-10-16T08:20:45;18.24;80.46
62476;DHT22;50739;45.670;11.936;2022-10-16T08:25:47;18.28;80.82
62476;DHT22;50739;45.670;11.936;2022-10-16T08:30:51;18.37;80.56
62476;DHT22;50739;45.670;11.936;2022-10-16T08:35:53;18.52;80.41
62476;DHT22;50739;45.670;11.936;2022-10-16T08:41:09;18.65;80.23
62476;DHT22;50739;45.670;11.936;2022-10-16T08:46:29;18.93;79.26
62476;DHT22;50739;45.670;11.936;2022-10-16T08:51:36;19.10;78.57
62476;DHT22;50739;45.670;11.936;2022-10-16T08:56:38;19.30;78.05
62476;DHT22;50739;45.670;11.936;2022-10-16T09:01:44;19.44;77.83
62476;DHT22;50739;45.670;11.936;2022-10-16T09:06:47;19.49;77.75
62476;DHT22;50739;45.670;11.936;2022-10-16T09:11:57;19.63;78.10
62476;DHT22;50739;45.670;11.936;2022-10-16T09:17:11;19.69;77.56
62476;DHT22;50739;45.670;11.936;2022-10-16T09:22:18;19.86;76.70
62476;DHT22;50739;45.670;11.936;2022-10-16T09:27:23;19.92;75.96
62476;DHT22;50739;45.670;11.936;2022-10-16T09:32:28;20.03;76.30
62476;DHT22;50739;45.670;11.936;2022-10-16T09:37:31;20.25;75.32
62476;DHT22;50739;45.670;11.936;2022-10-16T09:42:35;20.16;76.82
62476;DHT22;50739;45.670;11.936;2022-10-16T09:47:41;20.27;76.42
62476;DHT22;50739;45.670;11.936;2022-10-16T09:52:44;20.41;75.99
62476;DHT22;50739;45.670;11.936;2022-10-16T09:57:49;20.52;75.94
62476;DHT22;50739;45.670;11.936;2022-10-16T10:02:53;20.61;75.60
62476;DHT22;50739;45.670;11.936;2022-10-16T10:07:57;20.80;75.48
62476;DHT22;50739;45.670;11.936;2022-10-16T10:13:00;20.92;74.13
62476;DHT22;50739;45.670;11.936;2022-10-16T10:18:16;21.20;72.90
62476;DHT22;50739;45.670;11.936;2022-10-16T10:23:21;21.37;72.17
62476;DHT22;50739;45.670;11.936;2022-10-16T10:28:37;21.44;72.59
62476;DHT22;50739;45.670;11.936;2022-10-16T10:33:49;21.55;71.02
62476;DHT22;50739;45.670;11.936;2022-10-16T10:38:57;21.59;71.92
62476;DHT22;50739;45.670;11.936;2022-10-16T10:44:05;21.55;71.25
62476;DHT22;50739;45.670;11.936;2022-10-16T10:49:19;21.74;71.69
62476;DHT22;50739;45.670;11.936;2022-10-16T10:54:29;21.96;71.40
62476;DHT22;50739;45.670;11.936;2022-10-16T10:59:56;21.96;70.81
62476;DHT22;50739;45.670;11.936;2022-10-16T11:05:18;21.96;70.74
62476;DHT22;50739;45.670;11.936;2022-10-16T11:10:24;22.13;70.42
62476;DHT22;50739;45.670;11.936;2022-10-16T11:15:30;22.30;70.22
62476;DHT22;50739;45.670;11.936;2022-10-16T11:20:38;22.32;69.57
62476;DHT22;50739;45.670;11.936;2022-10-16T11:25:42;22.32;70.27
62476;DHT22;50739;45.670;11.936;2022-10-16T11:30:48;22.56;69.61
62476;DHT22;50739;45.670;11.936;2022-10-16T11:35:57;22.75;69.39
62476;DHT22;50739;45.670;11.936;2022-10-16T11:41:04;22.88;67.72
62476;DHT22;50739;45.670;11.936;2022-10-16T11:46:13;23.20;68.16
62476;DHT22;50739;45.670;11.936;2022-10-16T11:51:25;23.30;66.86
62476;DHT22;50739;45.670;11.936;2022-10-16T11:56:33;23.27;66.65
62476;DHT22;50739;45.670;11.936;2022-10-16T12:01:41;23.24;65.49
62476;DHT22;50739;45.670;11.936;2022-10-16T12:06:49;23.16;66.82
62476;DHT22;50739;45.670;11.936;2022-10-16T12:11:53;23.38;66.50
62476;DHT22;50739;45.670;11.936;2022-10-16T12:16:56;23.53;65.13
62476;DHT22;50739;45.670;11.936;2022-10-16T12:22:02;23.56;66.49
62476;DHT22;50739;45.670;11.936;2022-10-16T12:27:17;23.67;64.93
62476;DHT22;50739;45.670;11.936;2022-10-16T12:32:27;23.45;65.79
62476;DHT22;50739;45.670;11.936;2022-10-16T12:37:34;23.15;66.12
62476;DHT22;50739;45.670;11.936;2022-10-16T12:42:38;23.36;67.13
62476;DHT22;50739;45.670;11.936;2022-10-16T12:47:48;23.61;66.50
62476;DHT22;50739;45.670;11.936;2022-10-16T12:52:52;23.26;66.74
62476;DHT22;50739;45.670;11.936;2022-10-16T12:58:03;23.24;66.67
62476;DHT22;50739;45.670;11.936;2022-10-16T13:09:10;24.04;63.58
62476;DHT22;50739;45.670;11.936;2022-10-16T13:14:44;24.67;62.04
62476;DHT22;50739;45.670;11.936;2022-10-16T13:19:53;24.43;62.66
62476;DHT22;50739;45.670;11.936;2022-10-16T13:25:09;24.09;63.51
62476;DHT22;50739;45.670;11.936;2022-10-16T13:30:18;23.64;65.09
62476;DHT22;50739;45.670;11.936;2022-10-16T13:35:26;23.40;65.92
62476;DHT22;50739;45.670;11.936;2022-10-16T13:40:30;23.57;65.88
62476;DHT22;50739;45.670;11.936;2022-10-16T13:45:34;24.02;64.47
62476;DHT22;50739;45.670;11.936;2022-10-16T13:50:36;24.06;64.69
62476;DHT22;50739;45.670;11.936;2022-10-16T13:55:40;23.98;65.22
62476;DHT22;50739;45.670;11.936;2022-10-16T14:00:53;24.26;64.88
62476;DHT22;50739;45.670;11.936;2022-10-16T14:05:58;24.37;63.46
62476;DHT22;50739;45.670;11.936;2022-10-16T14:11:02;24.39;63.16
62476;DHT22;50739;45.670;11.936;2022-10-16T14:16:07;24.14;62.93
62476;DHT22;50739;45.670;11.936;2022-10-16T14:21:13;24.16;62.42
62476;DHT22;50739;45.670;11.936;2022-10-16T14:26:19;24.04;62.92
62476;DHT22;50739;45.670;11.936;2022-10-16T14:31:26;24.12;62.88
62476;DHT22;50739;45.670;11.936;2022-10-16T14:36:29;24.04;61.79
62476;DHT22;50739;45.670;11.936;2022-10-16T14:41:40;24.18;62.10
62476;DHT22;50739;45.670;11.936;2022-10-16T14:46:43;24.06;62.77
62476;DHT22;50739;45.670;11.936;2022-10-16T14:51:46;24.04;62.15
62476;DHT22;50739;45.670;11.936;2022-10-16T14:56:52;24.26;62.02
62476;DHT22;50739;45.670;11.936;2022-10-16T15:01:54;24.25;62.66
62476;DHT22;50739;45.670;11.936;2022-10-16T15:06:56;24.22;62.10
62476;DHT22;50739;45.670;11.936;2022-10-16T15:11:59;24.06;61.98
62476;DHT22;50739;45.670;11.936;2022-10-16T15:17:02;23.88;62.93
62476;DHT22;50739;45.670;11.936;2022-10-16T15:22:04;23.74;63.65
62476;DHT22;50739;45.670;11.936;2022-10-16T15:27:07;23.61;63.90
62476;DHT22;50739;45.670;11.936;2022-10-16T15:32:10;23.42;65.23
62476;DHT22;50739;45.670;11.936;2022-10-16T15:37:12;23.24;65.88
62476;DHT22;50739;45.670;11.936;2022-10-16T15:42:15;23.01;66.53
62476;DHT22;50739;45.670;11.936;2022-10-16T15:47:17;22.85;67.19
62476;DHT22;50739;45.670;11.936;2022-10-16T15:52:19;22.78;68.80
62476;DHT22;50739;45.670;11.936;2022-10-16T15:57:22;22.57;69.62
62476;DHT22;50739;45.670;11.936;2022-10-16T16:02:24;22.20;71.35
62476;DHT22;50739;45.670;11.936;2022-10-16T16:07:26;21.96;72.36
62476;DHT22;50739;45.670;11.936;2022-10-16T16:12:30;21.85;72.46
62476;DHT22;50739;45.670;11.936;2022-10-16T16:17:32;21.57;73.14
62476;DHT22;50739;45.670;11.936;2022-10-16T16:22:34;21.40;74.15
62476;DHT22;50739;45.670;11.936;2022-10-16T16:27:37;21.07;75.77
62476;DHT22;50739;45.670;11.936;2022-10-16T16:32:39;21.03;75.36
62476;DHT22;50739;45.670;11.936;2022-10-16T16:37:41;20.80;75.95
62476;DHT22;50739;45.670;11.936;2022-10-16T16:42:47;20.71;76.64
62476;DHT22;50739;45.670;11.936;2022-10-16T16:47:49;20.61;77.16
62476;DHT22;50739;45.670;11.936;2022-10-16T16:52:51;20.48;77.40
62476;DHT22;50739;45.670;11.936;2022-10-16T16:57:54;20.38;78.89
62476;DHT22;50739;45.670;11.936;2022-10-16T17:02:57;20.17;78.95
62476;DHT22;50739;45.670;11.936;2022-10-16T17:07:58;20.07;79.00
62476;DHT22;50739;45.670;11.936;2022-10-16T17:13:02;19.97;79.63
62476;DHT22;50739;45.670;11.936;2022-10-16T17:18:04;19.89;79.44
62476;DHT22;50739;45.670;11.936;2022-10-16T17:23:06;19.79;79.94
62476;DHT22;50739;45.670;11.936;2022-10-16T17:28:10;19.73;80.65
62476;DHT22;50739;45.670;11.936;2022-10-16T17:33:13;19.58;80.42
62476;DHT22;50739;45.670;11.936;2022-10-16T17:38:15;19.61;80.58
62476;DHT22;50739;45.670;11.936;2022-10-16T17:43:18;19.49;80.67
62476;DHT22;50739;45.670;11.936;2022-10-16T17:48:20;19.41;81.24
62476;DHT22;50739;45.670;11.936;2022-10-16T17:53:22;19.34;81.64
62476;DHT22;50739;45.670;11.936;2022-10-16T17:58:25;19.24;81.67
62476;DHT22;50739;45.670;11.936;2022-10-16T18:03:27;19.20;82.22
62476;DHT22;50739;45.670;11.936;2022-10-16T18:08:29;19.18;82.20
62476;DHT22;50739;45.670;11.936;2022-10-16T18:13:33;19.13;82.72
62476;DHT22;50739;45.670;11.936;2022-10-16T18:18:35;19.14;82.95
62476;DHT22;50739;45.670;11.936;2022-10-16T18:23:38;19.06;83.25
62476;DHT22;50739;45.670;11.936;2022-10-16T18:28:41;19.02;83.53
62476;DHT22;50739;45.670;11.936;2022-10-16T18:33:44;19.03;83.73
62476;DHT22;50739;45.670;11.936;2022-10-16T18:38:50;18.96;83.83
62476;DHT22;50739;45.670;11.936;2022-10-16T18:43:53;18.93;83.87
62476;DHT22;50739;45.670;11.936;2022-10-16T18:48:56;18.99;83.79
62476;DHT22;50739;45.670;11.936;2022-10-16T18:53:59;18.99;84.07
62476;DHT22;50739;45.670;11.936;2022-10-16T18:59:04;18.97;84.32
62476;DHT22;50739;45.670;11.936;2022-10-16T19:04:08;18.93;84.07
62476;DHT22;50739;45.670;11.936;2022-10-16T19:09:11;18.86;84.41
62476;DHT22;50739;45.670;11.936;2022-10-16T19:14:16;18.83;84.26
62476;DHT22;50739;45.670;11.936;2022-10-16T19:19:19;18.79;83.91
62476;DHT22;50739;45.670;11.936;2022-10-16T19:24:23;18.80;83.87
62476;DHT22;50739;45.670;11.936;2022-10-16T19:29:26;18.66;84.33
62476;DHT22;50739;45.670;11.936;2022-10-16T19:34:28;18.52;84.46
62476;DHT22;50739;45.670;11.936;2022-10-16T19:39:30;18.38;84.85
62476;DHT22;50739;45.670;11.936;2022-10-16T19:44:33;18.34;84.98
62476;DHT22;50739;45.670;11.936;2022-10-16T19:49:35;18.39;84.88
62476;DHT22;50739;45.670;11.936;2022-10-16T19:54:37;18.34;84.84
62476;DHT22;50739;45.670;11.936;2022-10-16T19:59:40;18.34;84.59
62476;DHT22;50739;45.670;11.936;2022-10-16T20:04:43;18.32;84.78
62476;DHT22;50739;45.670;11.936;2022-10-16T20:09:45;18.18;85.34
62476;DHT22;50739;45.670;11.936;2022-10-16T20:14:48;18.08;85.68
62476;DHT22;50739;45.670;11.936;2022-10-16T20:19:50;18.08;85.73
62476;DHT22;50739;45.670;11.936;2022-10-16T20:24:52;17.97;85.95
62476;DHT22;50739;45.670;11.936;2022-10-16T20:29:55;17.97;86.02
62476;DHT22;50739;45.670;11.936;2022-10-16T20:34:57;17.97;85.79
62476;DHT22;50739;45.670;11.936;2022-10-16T20:39:59;17.94;85.79
62476;DHT22;50739;45.670;11.936;2022-10-16T20:45:03;17.80;85.92
62476;DHT22;50739;45.670;11.936;2022-10-16T20:50:05;17.69;86.27
62476;DHT22;50739;45.670;11.936;2022-10-16T20:55:08;17.65;86.27
62476;DHT22;50739;45.670;11.936;2022-10-16T21:00:12;17.57;86.36
62476;DHT22;50739;45.670;11.936;2022-10-16T21:05:14;17.55;86.27
62476;DHT22;50739;45.670;11.936;2022-10-16T21:10:16;17.52;86.30
62476;DHT22;50739;45.670;11.936;2022-10-16T21:15:20;17.59;86.12
62476;DHT22;50739;45.670;11.936;2022-10-16T21:20:23;17.45;86.56
62476;DHT22;50739;45.670;11.936;2022-10-16T21:25:24;17.38;86.47
62476;DHT22;50739;45.670;11.936;2022-10-16T21:30:28;17.28;86.98
62476;DHT22;50739;45.670;11.936;2022-10-16T21:35:30;17.21;87.05
62476;DHT22;50739;45.670;11.936;2022-10-16T21:40:32;17.12;87.09
62476;DHT22;50739;45.670;11.936;2022-10-16T21:45:35;17.14;86.75
62476;DHT22;50739;45.670;11.936;2022-10-16T21:50:37;17.12;86.67
62476;DHT22;50739;45.670;11.936;2022-10-16T21:55:39;17.11;86.53
62476;DHT22;50739;45.670;11.936;2022-10-16T22:00:42;17.15;86.59
62476;DHT22;50739;45.670;11.936;2022-10-16T22:05:43;17.06;86.63
62476;DHT22;50739;45.670;11.936;2022-10-16T22:10:45;17.06;86.76
62476;DHT22;50739;45.670;11.936;2022-10-16T22:15:49;17.06;86.87
62476;DHT22;50739;45.670;11.936;2022-10-16T22:20:51;17.12;86.74
62476;DHT22;50739;45.670;11.936;2022-10-16T22:25:58;17.12;86.87
62476;DHT22;50739;45.670;11.936;2022-10-16T22:31:02;17.19;86.98
62476;DHT22;50739;45.670;11.936;2022-10-16T22:36:06;17.25;86.70
62476;DHT22;50739;45.670;11.936;2022-10-16T22:41:16;17.35;86.29
62476;DHT22;50739;45.670;11.936;2022-10-16T22:46:21;17.36;86.38
62476;DHT22;50739;45.670;11.936;2022-10-16T22:51:24;17.40;86.32
62476;DHT22;50739;45.670;11.936;2022-10-16T22:56:26;17.38;86.72
62476;DHT22;50739;45.670;11.936;2022-10-16T23:01:31;17.46;86.53
62476;DHT22;50739;45.670;11.936;2022-10-16T23:06:33;17.50;86.46
62476;DHT22;50739;45.670;11.936;2022-10-16T23:11:35;17.59;86.39
62476;DHT22;50739;45.670;11.936;2022-10-16T23:16:38;17.56;86.34
62476;DHT22;50739;45.670;11.936;2022-10-16T23:21:40;17.49;86.75
62476;DHT22;50739;45.670;11.936;2022-10-16T23:26:42;17.52;86.79
62476;DHT22;50739;45.670;11.936;2022-10-16T23:31:45;17.52;86.78
62476;DHT22;50739;45.670;11.936;2022-10-16T23:36:47;17.56;86.63
62476;DHT22;50739;45.670;11.936;2022-10-16T23:41:49;17.55;86.74
62476;DHT22;50739;45.670;11.936;2022-10-16T23:46:52;17.49;86.80
62476;DHT22;50739;45.670;11.936;2022-10-16T23:51:54;17.55;86.70
62476;DHT22;50739;45.670;11.936;2022-10-16T23:56:56;17.62;86.54
